Ana Sayfa
METAR-TAF:

METAR-TAF

Havaalanları :

Hamilton, Teksas, Amerika Birleşik Devletleri

Enlem: 31-39-57N, Boylam: 098-08-55W, yükseklik: 396 m

Güncel hava durumu gözlemi

Rapor saat 20:55 UTC de 17 dakika önce yapıldı.
Rüzgar güney/güneydoğudan 16 kt ve 21 kt'a kadar ani rüzgarlar
Sıcaklık 30°C
Nem 55%
Basınç 1015 hPa
Görüş mesafesi: 16.1 km
4300 ft yükseklikte parçalı bulutlu
5000 ft yükseklikte parçalı çok bulutlu

METAR: KMNZ 242055Z AUTO 15016G21KT 10SM SCT043 BKN050 30/20 A2998 RMK AO2 T02990195

Saat: 15:12 (21:12 UTC)


TAF: eksik

4.000'den fazla havaalanı için hava durumu gözlemleri ve tahminleri (METAR ve TAF raporları).

Kullanılabilir istasyonlar harita üzerinde sarı ve kırmızı noktalarla gösterilir.

İstasyonun adını görmek için fareyi noktanın üzerinde gezdirin.

Sonrasında hava gözlem ve tahminlerini görmek için tıklayın.

Haritayı değiştirmek için: yaklaştırmak için siyah artı işaretli yeşil düğmeye ve uzaklaştırmak için de eksi işaretli düğmeye hızla tıklayın; bitişik haritalar için yeşil okları kullanın.


METAR-TAF: